sensor_id;sensor_type;location;lat;lon;timestamp;pressure;altitude;pressure_sealevel;temperature;humidity
44044;BME280;29709;52.396;16.796;2023-04-28T00:02:53;102190.02;;;3.60;67.45
44044;BME280;29709;52.396;16.796;2023-04-28T00:06:07;102192.82;;;3.59;67.60
44044;BME280;29709;52.396;16.796;2023-04-28T00:09:20;102192.29;;;3.52;67.14
44044;BME280;29709;52.396;16.796;2023-04-28T00:12:33;102193.08;;;3.54;66.65
44044;BME280;29709;52.396;16.796;2023-04-28T00:15:48;102189.58;;;3.52;67.63
44044;BME280;29709;52.396;16.796;2023-04-28T00:19:01;102195.88;;;3.53;66.12
44044;BME280;29709;52.396;16.796;2023-04-28T00:22:15;102194.42;;;3.47;67.35
44044;BME280;29709;52.396;16.796;2023-04-28T00:25:28;102194.52;;;3.45;65.38
44044;BME280;29709;52.396;16.796;2023-04-28T00:28:41;102199.07;;;3.45;67.26
44044;BME280;29709;52.396;16.796;2023-04-28T00:31:55;102190.38;;;3.38;67.85
44044;BME280;29709;52.396;16.796;2023-04-28T00:35:08;102190.28;;;3.40;67.33
44044;BME280;29709;52.396;16.796;2023-04-28T00:38:21;102190.28;;;3.40;67.82
44044;BME280;29709;52.396;16.796;2023-04-28T00:41:37;102189.60;;;3.36;64.93
44044;BME280;29709;52.396;16.796;2023-04-28T00:44:50;102187.13;;;3.32;66.35
44044;BME280;29709;52.396;16.796;2023-04-28T00:48:04;102183.02;;;3.25;68.46
44044;BME280;29709;52.396;16.796;2023-04-28T00:51:17;102181.52;;;3.19;68.66
44044;BME280;29709;52.396;16.796;2023-04-28T00:54:32;102185.90;;;3.22;68.16
44044;BME280;29709;52.396;16.796;2023-04-28T00:57:50;102183.19;;;3.22;67.53
44044;BME280;29709;52.396;16.796;2023-04-28T01:01:05;102183.27;;;3.20;66.48
44044;BME280;29709;52.396;16.796;2023-04-28T01:04:20;102178.89;;;3.17;67.97
44044;BME280;29709;52.396;16.796;2023-04-28T01:07:33;102169.18;;;3.13;68.64
44044;BME280;29709;52.396;16.796;2023-04-28T01:10:46;102181.80;;;3.14;68.57
44044;BME280;29709;52.396;16.796;2023-04-28T01:13:59;102174.24;;;3.19;67.45
44044;BME280;29709;52.396;16.796;2023-04-28T01:17:13;102180.65;;;3.18;68.43
44044;BME280;29709;52.396;16.796;2023-04-28T01:20:26;102178.03;;;3.17;65.20
44044;BME280;29709;52.396;16.796;2023-04-28T01:23:39;102174.77;;;3.10;68.40
44044;BME280;29709;52.396;16.796;2023-04-28T01:26:52;102177.06;;;3.02;68.93
44044;BME280;29709;52.396;16.796;2023-04-28T01:30:06;102178.81;;;3.03;67.93
44044;BME280;29709;52.396;16.796;2023-04-28T01:33:20;102175.13;;;3.04;69.00
44044;BME280;29709;52.396;16.796;2023-04-28T01:36:33;102178.45;;;2.94;69.05
44044;BME280;29709;52.396;16.796;2023-04-28T01:39:46;102171.18;;;2.94;68.77
44044;BME280;29709;52.396;16.796;2023-04-28T01:42:59;102176.44;;;2.97;67.97
44044;BME280;29709;52.396;16.796;2023-04-28T01:46:12;102169.07;;;2.83;66.49
44044;BME280;29709;52.396;16.796;2023-04-28T01:49:26;102168.42;;;2.78;69.06
44044;BME280;29709;52.396;16.796;2023-04-28T01:52:39;102171.05;;;2.80;65.79
44044;BME280;29709;52.396;16.796;2023-04-28T01:55:52;102175.87;;;2.75;68.03
44044;BME280;29709;52.396;16.796;2023-04-28T01:59:06;102176.66;;;2.77;68.93
44044;BME280;29709;52.396;16.796;2023-04-28T02:02:19;102179.37;;;2.77;66.68
44044;BME280;29709;52.396;16.796;2023-04-28T02:05:32;102170.34;;;2.60;68.83
44044;BME280;29709;52.396;16.796;2023-04-28T02:08:45;102174.62;;;2.65;69.82
44044;BME280;29709;52.396;16.796;2023-04-28T02:11:59;102172.37;;;2.73;69.46
44044;BME280;29709;52.396;16.796;2023-04-28T02:15:14;102170.53;;;2.73;67.54
44044;BME280;29709;52.396;16.796;2023-04-28T02:18:28;102161.51;;;2.73;70.20
44044;BME280;29709;52.396;16.796;2023-04-28T02:21:42;102169.57;;;2.74;68.67
44044;BME280;29709;52.396;16.796;2023-04-28T02:24:56;102162.48;;;2.72;69.72
44044;BME280;29709;52.396;16.796;2023-04-28T02:28:09;102161.65;;;2.70;69.24
44044;BME280;29709;52.396;16.796;2023-04-28T02:31:22;102160.69;;;2.71;67.72
44044;BME280;29709;52.396;16.796;2023-04-28T02:34:35;102164.46;;;2.68;68.24
44044;BME280;29709;52.396;16.796;2023-04-28T02:37:48;102167.27;;;2.67;69.73
44044;BME280;29709;52.396;16.796;2023-04-28T02:41:04;102169.80;;;2.70;69.26
44044;BME280;29709;52.396;16.796;2023-04-28T02:44:17;102174.35;;;2.69;69.21
44044;BME280;29709;52.396;16.796;2023-04-28T02:47:30;102168.93;;;2.69;67.76
44044;BME280;29709;52.396;16.796;2023-04-28T02:50:44;102165.52;;;2.66;68.50
44044;BME280;29709;52.396;16.796;2023-04-28T02:54:00;102167.68;;;2.59;69.45
44044;BME280;29709;52.396;16.796;2023-04-28T02:57:13;102171.70;;;2.52;69.68
44044;BME280;29709;52.396;16.796;2023-04-28T03:00:26;102175.99;;;2.56;69.00
44044;BME280;29709;52.396;16.796;2023-04-28T03:03:41;102165.23;;;2.54;69.91
44044;BME280;29709;52.396;16.796;2023-04-28T03:06:54;102179.59;;;2.56;68.07
44044;BME280;29709;52.396;16.796;2023-04-28T03:10:08;102165.31;;;2.53;68.38
44044;BME280;29709;52.396;16.796;2023-04-28T03:13:21;102166.10;;;2.55;66.32
44044;BME280;29709;52.396;16.796;2023-04-28T03:16:34;102168.13;;;2.51;68.62
44044;BME280;29709;52.396;16.796;2023-04-28T03:19:48;102167.16;;;2.52;69.66
44044;BME280;29709;52.396;16.796;2023-04-28T03:23:01;102170.57;;;2.56;69.77
44044;BME280;29709;52.396;16.796;2023-04-28T03:26:14;102156.30;;;2.52;67.98
44044;BME280;29709;52.396;16.796;2023-04-28T03:29:28;102153.02;;;2.46;69.59
44044;BME280;29709;52.396;16.796;2023-04-28T03:32:41;102157.49;;;2.47;67.33
44044;BME280;29709;52.396;16.796;2023-04-28T03:35:55;102165.55;;;2.48;67.56
44044;BME280;29709;52.396;16.796;2023-04-28T03:39:08;102172.34;;;2.40;69.79
44044;BME280;29709;52.396;16.796;2023-04-28T03:42:21;102165.89;;;2.42;68.67
44044;BME280;29709;52.396;16.796;2023-04-28T03:45:34;102165.80;;;2.44;69.76
44044;BME280;29709;52.396;16.796;2023-04-28T03:48:48;102169.40;;;2.44;69.41
44044;BME280;29709;52.396;16.796;2023-04-28T03:52:01;102162.05;;;2.46;69.69
44044;BME280;29709;52.396;16.796;2023-04-28T03:55:16;102161.87;;;2.49;69.87
44044;BME280;29709;52.396;16.796;2023-04-28T03:58:29;102160.59;;;2.56;70.14
44044;BME280;29709;52.396;16.796;2023-04-28T04:01:42;102163.85;;;2.63;69.05
44044;BME280;29709;52.396;16.796;2023-04-28T04:04:55;102160.35;;;2.61;69.86
44044;BME280;29709;52.396;16.796;2023-04-28T04:08:09;102157.65;;;2.61;70.16
44044;BME280;29709;52.396;16.796;2023-04-28T04:11:22;102164.55;;;2.67;69.19
44044;BME280;29709;52.396;16.796;2023-04-28T04:14:35;102156.49;;;2.65;69.65
44044;BME280;29709;52.396;16.796;2023-04-28T04:17:48;102159.40;;;2.78;67.56
44044;BME280;29709;52.396;16.796;2023-04-28T04:21:02;102166.26;;;2.85;69.18
44044;BME280;29709;52.396;16.796;2023-04-28T04:24:15;102163.35;;;2.88;70.34
44044;BME280;29709;52.396;16.796;2023-04-28T04:27:28;102167.68;;;2.92;69.57
44044;BME280;29709;52.396;16.796;2023-04-28T04:30:42;102164.41;;;3.01;70.75
44044;BME280;29709;52.396;16.796;2023-04-28T04:33:56;102164.68;;;3.12;70.21
44044;BME280;29709;52.396;16.796;2023-04-28T04:37:10;102164.45;;;3.17;70.10
44044;BME280;29709;52.396;16.796;2023-04-28T04:40:23;102161.20;;;3.26;71.13
44044;BME280;29709;52.396;16.796;2023-04-28T04:43:36;102165.59;;;3.44;67.15
44044;BME280;29709;52.396;16.796;2023-04-28T04:46:50;102159.95;;;3.47;69.20
44044;BME280;29709;52.396;16.796;2023-04-28T04:50:04;102158.01;;;3.65;68.30
44044;BME280;29709;52.396;16.796;2023-04-28T04:53:18;102163.91;;;3.88;69.78
44044;BME280;29709;52.396;16.796;2023-04-28T04:56:31;102164.15;;;3.99;69.55
44044;BME280;29709;52.396;16.796;2023-04-28T04:59:44;102159.70;;;4.12;68.87
44044;BME280;29709;52.396;16.796;2023-04-28T05:02:57;102157.60;;;4.31;69.31
44044;BME280;29709;52.396;16.796;2023-04-28T05:06:11;102158.22;;;4.51;68.62
44044;BME280;29709;52.396;16.796;2023-04-28T05:09:24;102163.19;;;4.73;67.72
44044;BME280;29709;52.396;16.796;2023-04-28T05:12:37;102160.27;;;4.90;68.09
44044;BME280;29709;52.396;16.796;2023-04-28T05:15:51;102164.91;;;5.02;69.19
44044;BME280;29709;52.396;16.796;2023-04-28T05:19:04;102157.65;;;5.30;68.80
44044;BME280;29709;52.396;16.796;2023-04-28T05:22:17;102150.69;;;5.53;68.05
44044;BME280;29709;52.396;16.796;2023-04-28T05:25:31;102149.48;;;5.84;67.08
44044;BME280;29709;52.396;16.796;2023-04-28T05:28:44;102146.32;;;6.29;66.65
44044;BME280;29709;52.396;16.796;2023-04-28T05:31:58;102154.51;;;6.80;65.96
44044;BME280;29709;52.396;16.796;2023-04-28T05:35:12;102152.61;;;7.43;65.20
44044;BME280;29709;52.396;16.796;2023-04-28T05:38:27;102153.28;;;8.05;63.75
44044;BME280;29709;52.396;16.796;2023-04-28T05:41:40;102150.21;;;8.56;62.16
44044;BME280;29709;52.396;16.796;2023-04-28T05:44:54;102148.48;;;9.11;61.01
44044;BME280;29709;52.396;16.796;2023-04-28T05:48:07;102147.41;;;9.46;59.32
44044;BME280;29709;52.396;16.796;2023-04-28T05:51:20;102135.21;;;9.82;57.36
44044;BME280;29709;52.396;16.796;2023-04-28T05:54:34;102136.57;;;10.08;57.41
44044;BME280;29709;52.396;16.796;2023-04-28T05:57:47;102131.80;;;10.43;55.58
44044;BME280;29709;52.396;16.796;2023-04-28T06:01:01;102130.30;;;10.90;55.03
44044;BME280;29709;52.396;16.796;2023-04-28T06:04:14;102131.87;;;11.23;53.64
44044;BME280;29709;52.396;16.796;2023-04-28T06:07:27;102126.88;;;11.47;52.81
44044;BME280;29709;52.396;16.796;2023-04-28T06:10:41;102125.04;;;11.67;51.50
44044;BME280;29709;52.396;16.796;2023-04-28T06:13:54;102124.19;;;11.96;51.23
44044;BME280;29709;52.396;16.796;2023-04-28T06:17:07;102133.62;;;12.03;50.51
44044;BME280;29709;52.396;16.796;2023-04-28T06:20:21;102121.13;;;12.18;49.78
44044;BME280;29709;52.396;16.796;2023-04-28T06:23:34;102120.38;;;12.35;48.20
44044;BME280;29709;52.396;16.796;2023-04-28T06:26:49;102124.29;;;12.52;48.29
44044;BME280;29709;52.396;16.796;2023-04-28T06:30:02;102120.23;;;12.47;47.46
44044;BME280;29709;52.396;16.796;2023-04-28T06:33:15;102111.95;;;12.47;46.29
44044;BME280;29709;52.396;16.796;2023-04-28T06:36:29;102112.21;;;12.63;46.97
44044;BME280;29709;52.396;16.796;2023-04-28T06:39:42;102104.49;;;12.66;46.38
44044;BME280;29709;52.396;16.796;2023-04-28T06:42:55;102102.45;;;12.68;45.47
44044;BME280;29709;52.396;16.796;2023-04-28T06:46:08;102107.38;;;12.75;45.81
44044;BME280;29709;52.396;16.796;2023-04-28T06:49:23;102098.81;;;13.05;46.14
44044;BME280;29709;52.396;16.796;2023-04-28T06:52:36;102108.50;;;13.19;44.60
44044;BME280;29709;52.396;16.796;2023-04-28T06:55:51;102103.11;;;13.17;44.15
44044;BME280;29709;52.396;16.796;2023-04-28T06:59:04;102099.31;;;13.28;43.91
44044;BME280;29709;52.396;16.796;2023-04-28T07:02:19;102093.76;;;13.55;44.52
44044;BME280;29709;52.396;16.796;2023-04-28T07:05:32;102095.80;;;13.71;44.24
44044;BME280;29709;52.396;16.796;2023-04-28T07:08:46;102097.46;;;13.82;42.85
44044;BME280;29709;52.396;16.796;2023-04-28T07:11:59;102096.34;;;13.75;41.37
44044;BME280;29709;52.396;16.796;2023-04-28T07:15:12;102091.07;;;13.81;42.58
44044;BME280;29709;52.396;16.796;2023-04-28T07:18:26;102074.55;;;14.07;42.24
44044;BME280;29709;52.396;16.796;2023-04-28T07:21:39;102075.17;;;14.19;42.24
44044;BME280;29709;52.396;16.796;2023-04-28T07:24:52;102080.59;;;14.29;42.31
44044;BME280;29709;52.396;16.796;2023-04-28T07:28:06;102075.60;;;14.32;39.84
44044;BME280;29709;52.396;16.796;2023-04-28T07:31:19;102067.76;;;14.02;39.66
44044;BME280;29709;52.396;16.796;2023-04-28T07:34:34;102055.44;;;13.96;40.83
44044;BME280;29709;52.396;16.796;2023-04-28T07:37:50;102051.45;;;14.16;40.59
44044;BME280;29709;52.396;16.796;2023-04-28T07:41:03;102046.55;;;14.28;39.13
44044;BME280;29709;52.396;16.796;2023-04-28T07:44:16;102054.34;;;14.33;38.66
44044;BME280;29709;52.396;16.796;2023-04-28T07:47:30;102046.66;;;14.44;39.53
44044;BME280;29709;52.396;16.796;2023-04-28T07:50:43;102052.34;;;14.43;39.20
44044;BME280;29709;52.396;16.796;2023-04-28T07:53:57;102039.82;;;14.31;38.27
44044;BME280;29709;52.396;16.796;2023-04-28T07:57:10;102039.71;;;14.40;38.85
44044;BME280;29709;52.396;16.796;2023-04-28T08:00:24;102023.98;;;14.41;38.72
44044;BME280;29709;52.396;16.796;2023-04-28T08:03:38;102034.34;;;14.65;38.84
44044;BME280;29709;52.396;16.796;2023-04-28T08:06:52;102025.82;;;14.58;38.53
44044;BME280;29709;52.396;16.796;2023-04-28T08:10:07;102026.44;;;14.78;39.24
44044;BME280;29709;52.396;16.796;2023-04-28T08:13:21;102019.99;;;15.04;38.43
44044;BME280;29709;52.396;16.796;2023-04-28T08:16:34;102022.78;;;15.20;38.49
44044;BME280;29709;52.396;16.796;2023-04-28T08:19:52;102006.48;;;15.09;37.91
44044;BME280;29709;52.396;16.796;2023-04-28T08:23:06;102007.45;;;14.83;38.35
44044;BME280;29709;52.396;16.796;2023-04-28T08:26:26;101995.90;;;14.96;38.32
44044;BME280;29709;52.396;16.796;2023-04-28T08:29:39;101989.04;;;15.16;37.72
44044;BME280;29709;52.396;16.796;2023-04-28T08:32:52;101992.52;;;15.26;37.42
44044;BME280;29709;52.396;16.796;2023-04-28T08:36:06;101995.63;;;15.23;36.37
44044;BME280;29709;52.396;16.796;2023-04-28T08:39:19;101985.05;;;15.19;36.81
44044;BME280;29709;52.396;16.796;2023-04-28T08:42:35;101974.50;;;15.14;37.41
44044;BME280;29709;52.396;16.796;2023-04-28T08:45:49;101980.77;;;15.49;37.82
44044;BME280;29709;52.396;16.796;2023-04-28T08:49:03;101974.88;;;15.36;37.37
44044;BME280;29709;52.396;16.796;2023-04-28T08:52:18;101962.76;;;15.37;37.23
44044;BME280;29709;52.396;16.796;2023-04-28T08:55:33;101961.26;;;15.67;37.58
44044;BME280;29709;52.396;16.796;2023-04-28T08:58:48;101958.63;;;15.73;37.43
44044;BME280;29709;52.396;16.796;2023-04-28T09:02:03;101959.68;;;15.88;37.50
44044;BME280;29709;52.396;16.796;2023-04-28T09:05:16;101954.99;;;15.89;37.45
44044;BME280;29709;52.396;16.796;2023-04-28T09:08:29;101942.12;;;16.12;37.05
44044;BME280;29709;52.396;16.796;2023-04-28T09:18:35;101939.70;;;16.09;37.68
44044;BME280;29709;52.396;16.796;2023-04-28T09:21:53;101937.97;;;16.16;37.29
44044;BME280;29709;52.396;16.796;2023-04-28T09:25:10;101939.34;;;16.12;36.81
44044;BME280;29709;52.396;16.796;2023-04-28T09:28:24;101935.03;;;16.10;37.00
44044;BME280;29709;52.396;16.796;2023-04-28T09:31:37;101921.84;;;16.20;36.93
44044;BME280;29709;52.396;16.796;2023-04-28T09:34:54;101927.36;;;16.28;37.57
44044;BME280;29709;52.396;16.796;2023-04-28T09:38:11;101927.34;;;16.36;37.24
44044;BME280;29709;52.396;16.796;2023-04-28T09:44:52;101915.13;;;16.45;36.79
44044;BME280;29709;52.396;16.796;2023-04-28T09:48:09;101913.87;;;16.56;37.14
44044;BME280;29709;52.396;16.796;2023-04-28T09:51:25;101898.26;;;16.94;37.22
44044;BME280;29709;52.396;16.796;2023-04-28T09:54:38;101890.05;;;17.01;36.56
44044;BME280;29709;52.396;16.796;2023-04-28T09:57:53;101883.46;;;17.02;36.14
44044;BME280;29709;52.396;16.796;2023-04-28T10:01:08;101884.75;;;16.91;36.93
44044;BME280;29709;52.396;16.796;2023-04-28T10:04:24;101880.63;;;17.10;35.76
44044;BME280;29709;52.396;16.796;2023-04-28T10:07:43;101874.70;;;16.90;36.45
44044;BME280;29709;52.396;16.796;2023-04-28T10:10:57;101881.12;;;17.14;36.22
44044;BME280;29709;52.396;16.796;2023-04-28T10:14:10;101873.02;;;17.27;35.58
44044;BME280;29709;52.396;16.796;2023-04-28T10:17:23;101860.32;;;17.10;35.79
44044;BME280;29709;52.396;16.796;2023-04-28T10:20:47;101863.52;;;17.21;36.06
44044;BME280;29709;52.396;16.796;2023-04-28T10:24:10;101862.15;;;17.17;36.00
44044;BME280;29709;52.396;16.796;2023-04-28T10:27:30;101855.25;;;17.13;36.20
44044;BME280;29709;52.396;16.796;2023-04-28T10:40:59;101839.33;;;17.30;35.74
44044;BME280;29709;52.396;16.796;2023-04-28T10:54:29;101810.27;;;17.70;35.86
44044;BME280;29709;52.396;16.796;2023-04-28T10:57:42;101811.91;;;17.79;35.54
44044;BME280;29709;52.396;16.796;2023-04-28T11:04:20;101800.60;;;17.96;36.02
44044;BME280;29709;52.396;16.796;2023-04-28T11:07:39;101802.79;;;18.00;35.94
44044;BME280;29709;52.396;16.796;2023-04-28T11:17:41;101790.64;;;17.72;34.18
44044;BME280;29709;52.396;16.796;2023-04-28T11:20:56;101789.74;;;17.71;34.83
44044;BME280;29709;52.396;16.796;2023-04-28T11:24:10;101788.52;;;17.74;33.71
44044;BME280;29709;52.396;16.796;2023-04-28T11:27:24;101791.64;;;17.56;35.27
44044;BME280;29709;52.396;16.796;2023-04-28T11:30:38;101781.68;;;17.62;34.70
44044;BME280;29709;52.396;16.796;2023-04-28T11:33:53;101784.16;;;17.56;35.58
44044;BME280;29709;52.396;16.796;2023-04-28T11:37:14;101777.77;;;17.85;34.72
44044;BME280;29709;52.396;16.796;2023-04-28T11:40:27;101776.99;;;18.06;35.57
44044;BME280;29709;52.396;16.796;2023-04-28T11:43:41;101771.58;;;18.20;34.64
44044;BME280;29709;52.396;16.796;2023-04-28T11:46:58;101769.91;;;18.40;34.69
44044;BME280;29709;52.396;16.796;2023-04-28T11:50:12;101768.82;;;18.56;34.98
44044;BME280;29709;52.396;16.796;2023-04-28T11:56:55;101763.83;;;18.66;33.77
44044;BME280;29709;52.396;16.796;2023-04-28T12:00:13;101756.17;;;18.74;34.56
44044;BME280;29709;52.396;16.796;2023-04-28T12:03:44;101765.02;;;18.63;34.04
44044;BME280;29709;52.396;16.796;2023-04-28T12:10:24;101756.71;;;18.27;33.85
44044;BME280;29709;52.396;16.796;2023-04-28T12:13:38;101742.34;;;18.24;34.32
44044;BME280;29709;52.396;16.796;2023-04-28T12:16:51;101735.93;;;18.44;34.27
44044;BME280;29709;52.396;16.796;2023-04-28T12:20:10;101736.95;;;18.80;34.49
44044;BME280;29709;52.396;16.796;2023-04-28T12:23:34;101744.54;;;19.14;34.39
44044;BME280;29709;52.396;16.796;2023-04-28T12:26:47;101740.89;;;19.13;34.70
44044;BME280;29709;52.396;16.796;2023-04-28T12:30:01;101742.20;;;19.17;33.87
44044;BME280;29709;52.396;16.796;2023-04-28T12:33:20;101730.34;;;19.37;34.13
44044;BME280;29709;52.396;16.796;2023-04-28T12:36:35;101717.38;;;19.50;33.14
44044;BME280;29709;52.396;16.796;2023-04-28T12:39:48;101717.90;;;19.60;33.99
44044;BME280;29709;52.396;16.796;2023-04-28T12:43:01;101721.18;;;19.71;34.29
44044;BME280;29709;52.396;16.796;2023-04-28T12:46:14;101710.99;;;19.56;33.31
44044;BME280;29709;52.396;16.796;2023-04-28T12:49:27;101715.66;;;19.49;33.42
44044;BME280;29709;52.396;16.796;2023-04-28T12:52:40;101704.03;;;19.46;33.56
44044;BME280;29709;52.396;16.796;2023-04-28T12:55:54;101706.01;;;19.52;33.51
44044;BME280;29709;52.396;16.796;2023-04-28T12:59:07;101698.98;;;19.56;33.47
44044;BME280;29709;52.396;16.796;2023-04-28T13:02:20;101697.70;;;19.58;32.79
44044;BME280;29709;52.396;16.796;2023-04-28T13:05:34;101695.38;;;19.62;32.90
44044;BME280;29709;52.396;16.796;2023-04-28T13:08:48;101684.06;;;19.70;33.47
44044;BME280;29709;52.396;16.796;2023-04-28T13:12:01;101674.03;;;19.89;33.17
44044;BME280;29709;52.396;16.796;2023-04-28T13:15:16;101665.48;;;19.91;31.94
44044;BME280;29709;52.396;16.796;2023-04-28T13:18:30;101666.34;;;19.91;32.33
44044;BME280;29709;52.396;16.796;2023-04-28T13:21:44;101667.98;;;19.79;32.89
44044;BME280;29709;52.396;16.796;2023-04-28T13:24:58;101665.83;;;19.74;32.75
44044;BME280;29709;52.396;16.796;2023-04-28T13:28:12;101660.12;;;19.96;33.45
44044;BME280;29709;52.396;16.796;2023-04-28T13:31:27;101656.50;;;20.08;32.42
44044;BME280;29709;52.396;16.796;2023-04-28T13:34:42;101640.85;;;20.21;33.03
44044;BME280;29709;52.396;16.796;2023-04-28T13:37:56;101640.02;;;20.27;32.30
44044;BME280;29709;52.396;16.796;2023-04-28T13:41:17;101638.52;;;20.24;32.87
44044;BME280;29709;52.396;16.796;2023-04-28T13:44:30;101631.45;;;20.35;32.92
44044;BME280;29709;52.396;16.796;2023-04-28T13:47:43;101632.78;;;20.45;32.59
44044;BME280;29709;52.396;16.796;2023-04-28T13:50:57;101630.63;;;20.61;32.74
44044;BME280;29709;52.396;16.796;2023-04-28T13:54:10;101620.77;;;20.45;31.93
44044;BME280;29709;52.396;16.796;2023-04-28T13:57:23;101625.65;;;20.23;32.56
44044;BME280;29709;52.396;16.796;2023-04-28T14:00:37;101619.63;;;20.39;32.75
44044;BME280;29709;52.396;16.796;2023-04-28T14:03:52;101611.95;;;20.48;32.11
44044;BME280;29709;52.396;16.796;2023-04-28T14:07:05;101608.29;;;20.48;32.12
44044;BME280;29709;52.396;16.796;2023-04-28T14:10:19;101598.42;;;20.45;31.58
44044;BME280;29709;52.396;16.796;2023-04-28T14:13:32;101598.41;;;20.58;31.39
44044;BME280;29709;52.396;16.796;2023-04-28T14:16:46;101588.96;;;20.59;32.57
44044;BME280;29709;52.396;16.796;2023-04-28T14:20:01;101580.38;;;20.54;31.75
44044;BME280;29709;52.396;16.796;2023-04-28T14:23:14;101581.40;;;20.27;31.14
44044;BME280;29709;52.396;16.796;2023-04-28T14:26:28;101577.75;;;20.26;32.45
44044;BME280;29709;52.396;16.796;2023-04-28T14:29:41;101574.12;;;20.32;32.47
44044;BME280;29709;52.396;16.796;2023-04-28T14:32:56;101571.97;;;20.34;33.18
44044;BME280;29709;52.396;16.796;2023-04-28T14:36:09;101571.30;;;20.19;31.89
44044;BME280;29709;52.396;16.796;2023-04-28T14:39:23;101560.12;;;20.06;32.12
44044;BME280;29709;52.396;16.796;2023-04-28T14:42:36;101555.80;;;19.97;31.93
44044;BME280;29709;52.396;16.796;2023-04-28T14:45:50;101558.80;;;19.82;31.72
44044;BME280;29709;52.396;16.796;2023-04-28T14:49:03;101553.22;;;19.82;32.03
44044;BME280;29709;52.396;16.796;2023-04-28T14:52:18;101548.48;;;19.89;32.35
44044;BME280;29709;52.396;16.796;2023-04-28T14:55:32;101549.59;;;19.95;32.23
44044;BME280;29709;52.396;16.796;2023-04-28T14:58:46;101537.73;;;19.79;32.80
44044;BME280;29709;52.396;16.796;2023-04-28T15:01:59;101540.34;;;19.81;32.40
44044;BME280;29709;52.396;16.796;2023-04-28T15:05:13;101533.66;;;19.75;32.79
44044;BME280;29709;52.396;16.796;2023-04-28T15:08:26;101531.98;;;19.81;32.96
44044;BME280;29709;52.396;16.796;2023-04-28T15:11:39;101531.52;;;19.77;32.56
44044;BME280;29709;52.396;16.796;2023-04-28T15:14:53;101524.87;;;19.72;33.07
44044;BME280;29709;52.396;16.796;2023-04-28T15:18:06;101523.98;;;19.65;32.68
44044;BME280;29709;52.396;16.796;2023-04-28T15:21:19;101524.23;;;19.70;33.27
44044;BME280;29709;52.396;16.796;2023-04-28T15:24:33;101513.28;;;19.75;33.65
44044;BME280;29709;52.396;16.796;2023-04-28T15:27:47;101517.12;;;19.67;32.91
44044;BME280;29709;52.396;16.796;2023-04-28T15:31:02;101510.84;;;19.52;32.56
44044;BME280;29709;52.396;16.796;2023-04-28T15:34:17;101510.63;;;19.53;33.26
44044;BME280;29709;52.396;16.796;2023-04-28T15:37:40;101515.13;;;19.54;33.25
44044;BME280;29709;52.396;16.796;2023-04-28T15:40:54;101503.34;;;19.52;33.20
44044;BME280;29709;52.396;16.796;2023-04-28T15:44:08;101495.15;;;19.44;33.17
44044;BME280;29709;52.396;16.796;2023-04-28T15:47:23;101491.94;;;19.41;33.30
44044;BME280;29709;52.396;16.796;2023-04-28T15:50:36;101491.48;;;19.37;33.23
44044;BME280;29709;52.396;16.796;2023-04-28T15:53:50;101490.62;;;19.37;33.83
44044;BME280;29709;52.396;16.796;2023-04-28T15:57:03;101488.44;;;19.25;32.57
44044;BME280;29709;52.396;16.796;2023-04-28T16:00:17;101493.79;;;19.20;33.62
44044;BME280;29709;52.396;16.796;2023-04-28T16:03:31;101487.58;;;19.18;33.71
44044;BME280;29709;52.396;16.796;2023-04-28T16:06:44;101484.16;;;19.23;33.98
44044;BME280;29709;52.396;16.796;2023-04-28T16:09:57;101479.01;;;19.26;33.39
44044;BME280;29709;52.396;16.796;2023-04-28T16:13:10;101491.90;;;19.34;33.87
44044;BME280;29709;52.396;16.796;2023-04-28T16:16:24;101474.50;;;19.25;33.95
44044;BME280;29709;52.396;16.796;2023-04-28T16:19:37;101475.10;;;19.14;33.64
44044;BME280;29709;52.396;16.796;2023-04-28T16:22:51;101474.24;;;19.07;34.85
44044;BME280;29709;52.396;16.796;2023-04-28T16:26:05;101471.25;;;19.09;34.30
44044;BME280;29709;52.396;16.796;2023-04-28T16:29:18;101473.34;;;19.00;34.09
44044;BME280;29709;52.396;16.796;2023-04-28T16:32:32;101470.55;;;19.00;34.36
44044;BME280;29709;52.396;16.796;2023-04-28T16:35:53;101470.52;;;18.93;33.79
44044;BME280;29709;52.396;16.796;2023-04-28T16:39:07;101467.67;;;18.80;35.16
44044;BME280;29709;52.396;16.796;2023-04-28T16:42:21;101461.84;;;18.75;34.56
44044;BME280;29709;52.396;16.796;2023-04-28T16:45:34;101457.55;;;18.72;34.64
44044;BME280;29709;52.396;16.796;2023-04-28T16:48:47;101454.67;;;18.59;34.96
44044;BME280;29709;52.396;16.796;2023-04-28T16:52:02;101461.73;;;18.55;34.97
44044;BME280;29709;52.396;16.796;2023-04-28T16:55:15;101455.84;;;18.43;35.32
44044;BME280;29709;52.396;16.796;2023-04-28T16:58:30;101454.34;;;18.41;35.45
44044;BME280;29709;52.396;16.796;2023-04-28T17:01:45;101458.19;;;18.40;35.90
44044;BME280;29709;52.396;16.796;2023-04-28T17:04:58;101450.05;;;18.38;35.96
44044;BME280;29709;52.396;16.796;2023-04-28T17:08:11;101448.27;;;18.31;36.05
44044;BME280;29709;52.396;16.796;2023-04-28T17:11:24;101453.81;;;18.24;36.02
44044;BME280;29709;52.396;16.796;2023-04-28T17:14:39;101447.98;;;18.19;36.50
44044;BME280;29709;52.396;16.796;2023-04-28T17:17:53;101452.62;;;18.12;35.94
44044;BME280;29709;52.396;16.796;2023-04-28T17:21:07;101442.77;;;18.09;36.61
44044;BME280;29709;52.396;16.796;2023-04-28T17:24:20;101446.61;;;18.08;36.17
44044;BME280;29709;52.396;16.796;2023-04-28T17:27:34;101444.25;;;18.05;36.67
44044;BME280;29709;52.396;16.796;2023-04-28T17:30:47;101437.76;;;17.98;37.19
44044;BME280;29709;52.396;16.796;2023-04-28T17:34:00;101437.70;;;17.92;36.85